createdAt,value
2023-12-26T00:02:46.738Z,0.60
2023-12-26T00:05:48.384Z,0.68
2023-12-26T00:08:50.032Z,0.70
2023-12-26T00:11:51.479Z,0.73
2023-12-26T00:14:52.880Z,0.98
2023-12-26T00:17:54.348Z,0.65
2023-12-26T00:20:56.120Z,0.60
2023-12-26T00:23:57.746Z,0.75
2023-12-26T00:26:59.108Z,0.80
2023-12-26T00:30:00.714Z,0.80
2023-12-26T00:33:02.268Z,0.82
2023-12-26T00:36:04.792Z,0.73
2023-12-26T00:39:06.937Z,0.90
2023-12-26T00:42:09.941Z,0.73
2023-12-26T00:45:15.338Z,0.77
2023-12-26T00:48:16.807Z,0.73
2023-12-26T00:51:18.610Z,0.85
2023-12-26T00:54:20.117Z,0.63
2023-12-26T00:57:21.613Z,0.95
2023-12-26T01:00:23.842Z,0.75
2023-12-26T01:03:25.410Z,0.70
2023-12-26T01:06:26.885Z,0.73
2023-12-26T01:09:28.226Z,0.90
2023-12-26T01:12:29.523Z,0.90
2023-12-26T01:15:30.891Z,0.77
2023-12-26T01:18:32.740Z,0.80
2023-12-26T01:21:34.175Z,0.75
2023-12-26T01:24:35.472Z,0.93
2023-12-26T01:27:36.810Z,0.70
2023-12-26T01:30:41.559Z,0.70
2023-12-26T01:33:43.132Z,0.73
2023-12-26T01:36:44.537Z,0.93
2023-12-26T01:39:45.852Z,0.63
2023-12-26T01:42:48.761Z,0.52
2023-12-26T01:45:54.547Z,0.60
2023-12-26T01:48:56.474Z,0.82
2023-12-26T01:51:59.357Z,0.70
2023-12-26T01:55:01.055Z,0.60
2023-12-26T01:58:02.422Z,0.82
2023-12-26T02:01:07.521Z,0.80
2023-12-26T02:04:09.000Z,0.85
2023-12-26T02:07:10.398Z,0.63
2023-12-26T02:10:11.697Z,0.65
2023-12-26T02:13:13.157Z,0.60
2023-12-26T02:16:19.251Z,1.02
2023-12-26T02:19:22.032Z,0.88
2023-12-26T02:22:23.481Z,0.75
2023-12-26T02:25:24.891Z,0.82
2023-12-26T02:28:26.782Z,0.82
2023-12-26T02:31:28.755Z,1.10
2023-12-26T02:34:30.447Z,0.88
2023-12-26T02:37:32.377Z,0.90
2023-12-26T02:40:33.726Z,1.38
2023-12-26T02:43:35.214Z,0.90
2023-12-26T02:46:36.840Z,1.08
2023-12-26T02:49:38.306Z,1.20
2023-12-26T02:52:40.986Z,1.23
2023-12-26T02:55:42.628Z,1.50
2023-12-26T02:58:43.925Z,1.13
2023-12-26T03:01:49.445Z,1.25
2023-12-26T03:04:51.072Z,1.20
2023-12-26T03:07:52.430Z,1.52
2023-12-26T03:10:53.995Z,1.45
2023-12-26T03:13:55.337Z,1.17
2023-12-26T03:16:56.735Z,1.20
2023-12-26T03:19:58.157Z,1.02
2023-12-26T03:22:59.585Z,1.40
2023-12-26T03:26:00.888Z,1.27
2023-12-26T03:29:02.179Z,1.27
2023-12-26T03:32:03.525Z,1.38
2023-12-26T03:35:05.032Z,1.42
2023-12-26T03:38:06.723Z,1.60
2023-12-26T03:41:08.037Z,0.98
2023-12-26T03:44:09.360Z,1.15
2023-12-26T03:47:11.322Z,1.40
2023-12-26T03:50:12.715Z,1.13
2023-12-26T03:53:14.061Z,1.38
2023-12-26T03:56:15.406Z,1.98
2023-12-26T03:59:16.756Z,1.67
2023-12-26T04:02:18.089Z,1.63
2023-12-26T04:05:19.444Z,1.65
2023-12-26T04:08:20.902Z,1.48
2023-12-26T04:11:22.318Z,1.20
2023-12-26T04:14:23.622Z,0.98
2023-12-26T04:17:25.104Z,1.30
2023-12-26T04:20:26.455Z,1.27
2023-12-26T04:23:27.818Z,2.03
2023-12-26T04:26:29.320Z,2.00
2023-12-26T04:29:31.862Z,1.63
2023-12-26T04:32:33.218Z,1.50
2023-12-26T04:35:34.947Z,1.55
2023-12-26T04:38:36.293Z,1.20
2023-12-26T04:41:37.654Z,1.90
2023-12-26T04:44:39.496Z,1.35
2023-12-26T04:47:40.959Z,1.77
2023-12-26T04:50:42.358Z,2.10
2023-12-26T04:53:45.280Z,1.30
2023-12-26T04:56:46.648Z,1.73
2023-12-26T04:59:48.335Z,1.08
2023-12-26T05:02:50.160Z,1.70
2023-12-26T05:05:52.442Z,1.70
2023-12-26T05:08:53.900Z,1.30
2023-12-26T05:11:55.309Z,1.23
2023-12-26T05:14:56.869Z,1.75
2023-12-26T05:17:58.503Z,1.23
2023-12-26T05:20:59.996Z,1.35
2023-12-26T05:24:01.433Z,1.85
2023-12-26T05:27:02.936Z,1.90
2023-12-26T05:30:04.827Z,1.40
2023-12-26T05:33:06.426Z,1.30
2023-12-26T05:36:07.916Z,1.27
2023-12-26T05:39:09.814Z,1.20
2023-12-26T05:42:11.250Z,1.40
2023-12-26T05:45:12.636Z,1.27
2023-12-26T05:48:14.239Z,1.13
2023-12-26T05:51:15.732Z,1.42
2023-12-26T05:54:17.200Z,1.35
2023-12-26T05:57:18.631Z,1.52
2023-12-26T06:00:20.360Z,1.08
2023-12-26T06:03:22.232Z,1.25
2023-12-26T06:06:23.857Z,1.50
2023-12-26T06:09:26.831Z,1.38
2023-12-26T06:12:29.439Z,1.45
2023-12-26T06:15:30.867Z,1.30
2023-12-26T06:18:32.390Z,1.55
2023-12-26T06:21:33.824Z,1.90
2023-12-26T06:24:35.169Z,1.95
2023-12-26T06:27:36.505Z,1.52
2023-12-26T06:30:37.960Z,1.38
2023-12-26T06:33:39.535Z,1.40
2023-12-26T06:36:41.026Z,1.27
2023-12-26T06:39:44.076Z,1.30
2023-12-26T06:42:45.453Z,1.30
2023-12-26T06:45:46.775Z,1.13
2023-12-26T06:48:48.469Z,1.50
2023-12-26T06:51:49.874Z,1.20
2023-12-26T06:54:51.350Z,1.42
2023-12-26T06:57:52.693Z,1.10
2023-12-26T07:00:54.056Z,1.52
2023-12-26T07:03:56.671Z,1.20
2023-12-26T07:06:58.085Z,1.10
2023-12-26T07:09:59.365Z,1.38
2023-12-26T07:13:00.947Z,1.10
2023-12-26T07:16:02.305Z,1.42
2023-12-26T07:19:03.806Z,1.17
2023-12-26T07:22:05.320Z,1.13
2023-12-26T07:25:06.714Z,1.27
2023-12-26T07:28:08.096Z,1.02
2023-12-26T07:31:09.430Z,1.20
2023-12-26T07:34:11.360Z,1.38
2023-12-26T07:37:12.908Z,1.20
2023-12-26T07:40:14.411Z,1.23
2023-12-26T07:43:15.810Z,1.30
2023-12-26T07:46:17.116Z,1.15
2023-12-26T07:49:18.674Z,1.40
2023-12-26T07:52:20.098Z,1.42
2023-12-26T07:55:21.501Z,1.27
2023-12-26T07:58:22.843Z,1.30
2023-12-26T08:01:26.706Z,1.42
2023-12-26T08:04:28.052Z,1.30
2023-12-26T08:07:30.685Z,1.60
2023-12-26T08:10:32.017Z,1.08
2023-12-26T08:13:33.425Z,1.00
2023-12-26T08:16:34.786Z,1.20
2023-12-26T08:19:36.309Z,1.35
2023-12-26T08:22:37.716Z,1.35
2023-12-26T08:25:39.811Z,1.05
2023-12-26T08:28:42.714Z,1.30
2023-12-26T08:31:45.043Z,1.02
2023-12-26T08:34:46.494Z,1.20
2023-12-26T08:37:47.859Z,1.13
2023-12-26T08:40:50.299Z,1.27
2023-12-26T08:43:51.647Z,1.10
2023-12-26T08:46:53.031Z,1.02
2023-12-26T08:49:54.480Z,1.02
2023-12-26T08:52:56.037Z,1.13
2023-12-26T08:55:57.485Z,1.02
2023-12-26T08:58:58.876Z,1.00
2023-12-26T09:02:00.231Z,0.93
2023-12-26T09:05:02.023Z,0.98
2023-12-26T09:08:03.590Z,1.02
2023-12-26T09:11:05.564Z,0.82
2023-12-26T09:14:07.018Z,0.80
2023-12-26T09:17:08.452Z,1.02
2023-12-26T09:20:10.902Z,1.00
2023-12-26T09:23:13.263Z,1.08
2023-12-26T09:26:15.516Z,0.95
2023-12-26T09:29:16.924Z,1.00
2023-12-26T09:32:18.319Z,0.82
2023-12-26T09:35:19.680Z,1.40
2023-12-26T09:38:22.146Z,0.82
2023-12-26T09:41:25.647Z,0.93
2023-12-26T09:44:27.058Z,0.82
2023-12-26T09:47:28.551Z,0.90
2023-12-26T09:50:30.153Z,0.90
2023-12-26T09:53:32.891Z,1.33
2023-12-26T09:56:35.002Z,1.00
2023-12-26T09:59:38.175Z,0.90
2023-12-26T10:02:39.535Z,0.80
2023-12-26T10:05:40.923Z,1.13
2023-12-26T10:08:44.003Z,0.77
2023-12-26T10:11:45.657Z,0.90
2023-12-26T10:14:47.104Z,0.90
2023-12-26T10:17:48.736Z,1.13
2023-12-26T10:20:50.215Z,0.80
2023-12-26T10:23:51.646Z,0.88
2023-12-26T10:26:53.200Z,0.77
2023-12-26T10:29:55.246Z,1.00
2023-12-26T10:33:00.961Z,1.00
2023-12-26T10:36:04.691Z,1.55
2023-12-26T10:39:06.995Z,1.10
2023-12-26T10:42:09.198Z,1.40
2023-12-26T10:45:11.904Z,1.17
2023-12-26T10:48:14.202Z,1.02
2023-12-26T10:51:16.279Z,1.00
2023-12-26T10:54:21.448Z,1.05
2023-12-26T10:57:24.265Z,1.15
2023-12-26T11:00:50.935Z,1.33
2023-12-26T11:04:29.958Z,1.35
2023-12-26T11:08:09.354Z,1.23
2023-12-26T11:11:48.590Z,0.95
2023-12-26T11:15:27.868Z,1.13
2023-12-26T11:19:07.364Z,0.80
2023-12-26T11:22:46.500Z,0.80
2023-12-26T11:26:25.446Z,1.15
2023-12-26T11:30:04.502Z,1.05
2023-12-26T11:33:43.967Z,0.70
2023-12-26T11:37:22.960Z,0.93
2023-12-26T11:41:02.119Z,1.33
2023-12-26T11:44:40.808Z,0.93
2023-12-26T11:48:20.118Z,1.50
2023-12-26T11:51:58.928Z,1.00
2023-12-26T11:55:37.921Z,1.10
2023-12-26T11:59:17.111Z,0.88
2023-12-26T12:02:56.432Z,1.23
2023-12-26T12:06:35.390Z,0.93
2023-12-26T12:10:14.423Z,0.73
2023-12-26T12:13:53.210Z,0.90
2023-12-26T12:17:32.334Z,1.13
2023-12-26T12:21:11.424Z,1.08
2023-12-26T12:24:50.109Z,1.10
2023-12-26T12:28:29.242Z,1.00
2023-12-26T12:32:08.052Z,0.82
2023-12-26T12:35:46.958Z,0.80
2023-12-26T12:39:25.611Z,0.80
2023-12-26T12:43:04.884Z,0.82
2023-12-26T12:46:43.945Z,0.73
2023-12-26T12:50:22.562Z,0.68
2023-12-26T12:54:01.375Z,0.65
2023-12-26T12:57:40.341Z,0.93
2023-12-26T13:01:19.296Z,0.82
2023-12-26T13:04:58.026Z,0.93
2023-12-26T13:08:37.050Z,0.80
2023-12-26T13:12:16.099Z,0.77
2023-12-26T13:15:54.885Z,0.77
2023-12-26T13:19:35.089Z,0.88
2023-12-26T13:23:14.631Z,0.82
2023-12-26T13:26:53.751Z,0.80
2023-12-26T13:30:32.927Z,0.65
2023-12-26T13:34:12.322Z,0.95
2023-12-26T13:37:51.202Z,1.00
2023-12-26T13:41:30.303Z,1.13
2023-12-26T13:45:09.228Z,1.02
2023-12-26T13:48:48.201Z,1.00
2023-12-26T13:52:08.269Z,1.02
2023-12-26T13:55:28.130Z,0.90
2023-12-26T13:58:48.442Z,1.27
2023-12-26T14:02:08.527Z,0.73
2023-12-26T14:05:28.597Z,0.90
2023-12-26T14:08:49.227Z,0.90
2023-12-26T14:12:09.620Z,1.00
2023-12-26T14:15:29.539Z,1.13
2023-12-26T14:18:49.973Z,0.73
2023-12-26T14:22:10.375Z,0.93
2023-12-26T14:25:31.445Z,0.90
2023-12-26T14:28:51.777Z,0.90
2023-12-26T14:32:12.316Z,1.10
2023-12-26T14:35:32.290Z,1.15
2023-12-26T14:38:52.678Z,1.05
2023-12-26T14:42:12.669Z,1.30
2023-12-26T14:45:32.826Z,1.02
2023-12-26T14:48:53.026Z,1.15
2023-12-26T14:52:13.231Z,1.08
2023-12-26T14:55:33.244Z,1.42
2023-12-26T14:58:53.356Z,1.00
2023-12-26T15:01:56.503Z,1.08
2023-12-26T15:04:57.894Z,1.15
2023-12-26T15:07:59.231Z,1.45
2023-12-26T15:11:00.678Z,1.67
2023-12-26T15:14:11.617Z,1.48
2023-12-26T15:17:23.647Z,1.50
2023-12-26T15:20:25.059Z,1.48
2023-12-26T15:23:26.450Z,0.93
2023-12-26T15:26:27.990Z,1.30
2023-12-26T15:29:29.428Z,1.00
2023-12-26T15:32:30.844Z,0.93
2023-12-26T15:35:32.637Z,0.90
2023-12-26T15:38:35.555Z,1.17
2023-12-26T15:41:38.442Z,1.17
2023-12-26T15:44:41.863Z,1.30
2023-12-26T15:47:43.530Z,1.00
2023-12-26T15:50:45.030Z,1.55
2023-12-26T15:53:47.182Z,1.08
2023-12-26T15:56:50.039Z,1.20
2023-12-26T15:59:51.425Z,1.25
2023-12-26T16:02:52.813Z,1.00
2023-12-26T16:05:54.387Z,1.35
2023-12-26T16:08:56.307Z,1.45
2023-12-26T16:11:57.897Z,1.40
2023-12-26T16:14:59.385Z,1.77
2023-12-26T16:18:00.908Z,1.52
2023-12-26T16:21:03.482Z,1.70
2023-12-26T16:24:04.986Z,1.40
2023-12-26T16:27:06.430Z,1.30
2023-12-26T16:30:08.475Z,1.55
2023-12-26T16:33:10.123Z,2.50
2023-12-26T16:36:13.584Z,2.03
2023-12-26T16:39:15.102Z,1.90
2023-12-26T16:42:17.852Z,1.77
2023-12-26T16:45:26.959Z,2.03
2023-12-26T16:48:28.468Z,2.35
2023-12-26T16:51:29.923Z,3.70
2023-12-26T16:54:32.911Z,2.00
2023-12-26T16:57:36.085Z,2.10
2023-12-26T17:00:39.408Z,3.60
2023-12-26T17:03:41.702Z,2.92
2023-12-26T17:06:43.615Z,3.20
2023-12-26T17:09:44.979Z,2.95
2023-12-26T17:12:46.332Z,3.08
2023-12-26T17:15:48.509Z,2.42
2023-12-26T17:18:50.022Z,2.58
2023-12-26T17:21:52.021Z,2.17
2023-12-26T17:25:05.436Z,2.45
2023-12-26T17:28:08.441Z,2.70
2023-12-26T17:31:10.095Z,2.33
2023-12-26T17:34:11.558Z,2.42
2023-12-26T17:37:13.084Z,2.03
2023-12-26T17:40:14.528Z,2.30
2023-12-26T17:43:15.858Z,1.98
2023-12-26T17:46:17.226Z,2.42
2023-12-26T17:49:18.789Z,2.25
2023-12-26T17:52:20.258Z,2.28
2023-12-26T17:55:21.709Z,2.42
2023-12-26T17:58:29.348Z,2.88
2023-12-26T18:01:30.742Z,2.45
2023-12-26T18:04:32.114Z,2.60
2023-12-26T18:07:33.511Z,2.58
2023-12-26T18:10:34.919Z,2.10
2023-12-26T18:13:37.456Z,2.55
2023-12-26T18:16:42.106Z,2.55
2023-12-26T18:19:44.649Z,2.30
2023-12-26T18:22:46.056Z,2.42
2023-12-26T18:25:47.397Z,2.80
2023-12-26T18:28:48.735Z,3.25
2023-12-26T18:31:50.268Z,2.28
2023-12-26T18:34:51.665Z,3.03
2023-12-26T18:37:54.501Z,2.58
2023-12-26T18:40:56.369Z,3.63
2023-12-26T18:43:57.687Z,5.93
2023-12-26T18:46:59.105Z,6.47
2023-12-26T18:50:00.577Z,4.80
2023-12-26T18:53:02.079Z,7.80
2023-12-26T18:56:03.582Z,22.30
2023-12-26T18:59:05.715Z,10.00
2023-12-26T19:02:07.286Z,9.88
2023-12-26T19:05:08.806Z,5.88
2023-12-26T19:08:10.204Z,4.18
2023-12-26T19:11:15.211Z,4.10
2023-12-26T19:14:16.573Z,3.80
2023-12-26T19:17:22.275Z,4.13
2023-12-26T19:20:23.770Z,4.15
2023-12-26T19:23:25.218Z,3.67
2023-12-26T19:26:26.570Z,3.92
2023-12-26T19:29:27.956Z,3.53
2023-12-26T19:32:29.320Z,2.30
2023-12-26T19:35:31.121Z,3.13
2023-12-26T19:38:32.806Z,2.63
2023-12-26T19:41:34.949Z,2.65
2023-12-26T19:44:38.406Z,2.67
2023-12-26T19:47:40.163Z,2.90
2023-12-26T19:50:42.311Z,2.75
2023-12-26T19:53:43.759Z,2.95
2023-12-26T19:56:45.137Z,2.78
2023-12-26T19:59:46.497Z,3.50
2023-12-26T20:02:47.904Z,2.83
2023-12-26T20:05:50.450Z,3.20
2023-12-26T20:08:51.948Z,3.00
2023-12-26T20:11:54.789Z,4.50
2023-12-26T20:14:56.170Z,10.13
2023-12-26T20:17:58.090Z,8.70
2023-12-26T20:21:03.353Z,6.70
2023-12-26T20:24:05.741Z,6.05
2023-12-26T20:27:07.199Z,5.60
2023-12-26T20:30:09.504Z,5.50
2023-12-26T20:33:11.660Z,5.93
2023-12-26T20:36:13.099Z,3.22
2023-12-26T20:39:15.250Z,2.83
2023-12-26T20:42:17.709Z,3.00
2023-12-26T20:45:19.243Z,3.20
2023-12-26T20:48:20.771Z,3.08
2023-12-26T20:51:22.620Z,4.53
2023-12-26T20:54:24.141Z,5.55
2023-12-26T20:57:25.634Z,5.30
2023-12-26T21:00:29.698Z,4.18
2023-12-26T21:03:31.246Z,4.40
2023-12-26T21:06:32.916Z,4.18
2023-12-26T21:09:35.572Z,4.38
2023-12-26T21:12:37.598Z,4.38
2023-12-26T21:15:39.026Z,4.50
2023-12-26T21:18:40.533Z,5.55
2023-12-26T21:21:42.213Z,4.65
2023-12-26T21:24:43.859Z,5.05
2023-12-26T21:27:45.195Z,4.93
2023-12-26T21:30:46.582Z,5.10
2023-12-26T21:33:48.255Z,10.35
2023-12-26T21:36:49.717Z,10.25
2023-12-26T21:39:51.020Z,6.97
2023-12-26T21:42:52.342Z,5.65
2023-12-26T21:45:53.648Z,8.40
2023-12-26T21:48:55.080Z,10.75
2023-12-26T21:51:56.452Z,11.10
2023-12-26T21:54:57.743Z,6.18
2023-12-26T21:57:59.277Z,4.95
2023-12-26T22:01:00.781Z,6.28
2023-12-26T22:04:02.146Z,6.82
2023-12-26T22:07:04.091Z,6.63
2023-12-26T22:10:06.706Z,6.10
2023-12-26T22:13:09.132Z,8.10
2023-12-26T22:16:17.916Z,6.40
2023-12-26T22:19:19.301Z,6.28
2023-12-26T22:22:20.666Z,5.57
2023-12-26T22:25:21.977Z,6.32
2023-12-26T22:28:23.306Z,7.30
2023-12-26T22:31:24.821Z,8.02
2023-12-26T22:34:26.705Z,9.05
2023-12-26T22:37:28.105Z,9.20
2023-12-26T22:40:29.462Z,10.07
2023-12-26T22:43:34.560Z,10.00
2023-12-26T22:46:36.009Z,8.15
2023-12-26T22:49:37.479Z,8.65
2023-12-26T22:52:38.932Z,7.03
2023-12-26T22:55:40.363Z,6.45
2023-12-26T22:58:42.273Z,5.97
2023-12-26T23:01:45.562Z,7.07
2023-12-26T23:04:46.946Z,6.05
2023-12-26T23:07:48.282Z,6.22
2023-12-26T23:10:49.574Z,5.82
2023-12-26T23:13:51.464Z,5.90
2023-12-26T23:16:52.784Z,6.10
2023-12-26T23:19:54.376Z,6.80
2023-12-26T23:22:55.789Z,6.47
2023-12-26T23:25:57.344Z,6.90
2023-12-26T23:28:58.777Z,6.03
2023-12-26T23:32:00.131Z,6.25
2023-12-26T23:35:01.691Z,5.75
2023-12-26T23:38:03.244Z,6.18
2023-12-26T23:41:04.597Z,6.65
2023-12-26T23:44:06.304Z,7.05
2023-12-26T23:47:10.349Z,7.35
2023-12-26T23:50:11.813Z,6.00
2023-12-26T23:53:13.130Z,6.47
2023-12-26T23:56:14.463Z,6.57
2023-12-26T23:59:15.825Z,6.07
